Portada
METAR-TAF:

METAR-TAF

Aeropuertos :

Tánger, Marruecos

Aeropuerto de Tánger

latitud: 35-44N, longitud: 005-54W, altitud: 19 m

Observación

El informe se hizo hace 20 minutos, a las 09:00 UTC
Viento 12 kt del este-sureste
Temperatura 21°C
Humedad 64%
Presión 1015 hPa
Visibilidad: 8000 m
Escasas nubes a una altura de 2000 ft
Cielo nuboso a una altura de 20000 ft

METAR: GMTT 240900Z 12012KT 8000 FEW020 BKN200 21/14 Q1015 NOSIG

Hora: 10:20 (09:20 UTC)

Pronóstico

El informe se hizo hace 10 horas y 20 minutos, a las 23:00 UTC
Pronóstico válido del 24 a las 00 UTC al 25 a las 06 UTC
Viento 10 kt del este-sureste
Visibilidad: 8000 m
Escasas nubes a una altura de 1600 ft
Nubes dispersas a una altura de 20000 ft

TAF: GMTT 232300Z 2400/2506 11010KT 8000 FEW016 SCT200

Observaciones y pronósticos meteorológicos de más de 4000 aeropuertos (mensajes METAR y TAF).

Los puntos amarillos y rojos representan las estaciones disponibles.

Ponga el ratón en el punto deseado para ver el nombre de la estación.

Haga clic para ver las observaciones y los pronósticos meteorológicos.

Para cambiar el mapa : haga clic en los botones verdes con una cruz de color negro para hacer un zoom, en el botón verde con un guión para alejar o en las flechas verdes para mapas adyacentes.


METAR-TAF: